Welcome!

Visit our other weather sites:

Template documentation
and downloads

And another site



There are no active watches, warnings or advisories

Nearby METAR Reports

   
KAVP - Albrightsville, PA
Updated: Apr 14 2021 12:54 am
Clear  
Clear  
   Wind: SE 3.5 mph
Wind: SE 3.5 mph
Temperature: 44.6°F
Wind Chill: 42.8°F
Dew Point: 35.6°F
Humidity: 71%
Barometer: 30.06 inHg
Clouds: Clear
Visibility: 10 mi
Cloud details: Clear
KAVP 140554Z AUTO 14003KT 10SM CLR 07/02 A3006 RMK AO2 SLP180 T00720017 10161 20072 53002
KIWA - Apache Junction, AZ
Updated: Apr 14 2021 1:47 am
Mostly Cloudy  
Mostly Cloudy  
   Wind: Calm
Wind: Calm
Temperature: 73.4°F
Dew Point: 30.2°F
Humidity: 20%
Barometer: 29.79 inHg
Clouds: Mostly Cloudy
Visibility: 10 mi
Cloud details: Mostly Cloudy 6096 m
KIWA 140647Z 00000KT 10SM BKN200 23/M01 A2979
KPKB - Blue Rock, OH
Updated: Apr 14 2021 12:53 am
Overcast  
Overcast  
   Wind: Calm
Wind: Calm
Temperature: 53.6°F
Dew Point: 42.8°F
Humidity: 67%
Barometer: 30.08 inHg
Clouds: Overcast
Visibility: 10 mi
Cloud details: Few Clouds 2134 m,
Mostly Cloudy 2438 m,
Overcast 3353 m
KPKB 140553Z AUTO 00000KT 10SM FEW070 BKN080 OVC110 12/06 A3008 RMK AO2 SLP185 T01220061 10183 20122 58005
KHVN - Branford, CT
Updated: Apr 14 2021 12:53 am
Overcast  
Overcast  
   Wind: West 4.6 mph
Wind: West 4.6 mph
Temperature: 50°F
Wind Chill: 48.2°F
Dew Point: 42.8°F
Humidity: 76%
Barometer: 30.07 inHg
Clouds: Overcast
Visibility: 10 mi
Cloud details: Overcast 2438 m
KHVN 140553Z AUTO 26004KT 10SM OVC080 10/06 A3007 RMK AO2 SLP182 T01000061 10106 20061 58005
KPHX - Carefree, AZ
Updated: Apr 14 2021 1:51 am
Clear  
Clear  
   Wind: WSW 5.8 mph
Wind: WSW 5.8 mph
Temperature: 75.2°F
Dew Point: 30.2°F
Humidity: 19%
Barometer: 29.75 inHg
Clouds: Clear
Visibility: 10 mi
Cloud details: Clear
KPHX 140651Z 24005KT 10SM CLR 24/M01 A2975 RMK AO2 SLP056 T02441011 403280183
 

Script developed by  Saratoga-weather.org Adapted for the template by  Weerstation Leuven